Time;durP1;ratioP1;P1;durP2;ratioP2;P2;SDS_P1;SDS_P2;PMS_P1;PMS_P2;Temp;Humidity;BMP_temperature;BMP_pressure;BME280_temperature;BME280_humidity;BME280_pressure;Samples;Min_cycle;Max_cycle;Signal;HPM_P1;HPM_P2
2023/09/03 00:02:06;;;;;;;;;;;;;;;26.09;56.95;101629.28;5034583;28;19928;-57
2023/09/03 00:04:34;;;;;;;;;;;;;;;26.09;56.85;101629.28;5034657;28;20390;-57
2023/09/03 00:07:01;;;;;;;;;;;;;;;26.09;56.87;101632.88;5034323;28;19928;-57
2023/09/03 00:09:28;;;;;;;;;;;;;;;26.09;57.08;101632.88;5034315;28;19928;-56
2023/09/03 00:11:55;;;;;;;;;;;;;;;26.08;56.97;101625.72;5034310;28;19928;-57
2023/09/03 00:14:22;;;;;;;;;;;;;;;26.09;56.88;101619.31;5034422;28;19928;-57
2023/09/03 00:16:49;;;;;;;;;;;;;;;26.10;56.80;101629.16;5034393;28;20379;-57
2023/09/03 00:19:16;;;;;;;;;;;;;;;26.10;56.80;101631.03;5034449;28;19928;-57
2023/09/03 00:21:43;;;;;;;;;;;;;;;26.09;56.83;101619.31;5034135;28;20363;-57
2023/09/03 00:24:11;;;;;;;;;;;;;;;26.10;56.95;101620.16;5033462;28;19928;-57
2023/09/03 00:26:38;;;;;;;;;;;;;;;26.11;56.93;101613.72;5034300;28;20367;-57
2023/09/03 00:29:05;;;;;;;;;;;;;;;26.09;56.99;101615.72;5034484;28;19921;-56
2023/09/03 00:31:32;;;;;;;;;;;;;;;26.10;57.00;101618.31;5032868;28;19921;-56
2023/09/03 00:33:59;;;;;;;;;;;;;;;26.10;56.92;101604.72;5034600;28;19921;-56
2023/09/03 00:36:27;;;;;;;;;;;;;;;26.10;56.89;101614.75;5049161;28;20261;-55
2023/09/03 00:38:54;;;;;;;;;;;;;;;26.09;56.91;101610.31;5033547;28;19924;-56
2023/09/03 00:41:21;;;;;;;;;;;;;;;26.09;56.82;101602.16;5037136;28;19925;-56
2023/09/03 00:43:49;;;;;;;;;;;;;;;26.10;56.79;101598.47;5048683;28;19921;-56
2023/09/03 00:46:16;;;;;;;;;;;;;;;26.10;57.00;101598.47;5041226;28;19920;-56
2023/09/03 00:48:43;;;;;;;;;;;;;;;26.09;56.98;101597.59;5042643;28;19928;-56
2023/09/03 00:51:11;;;;;;;;;;;;;;;26.10;56.97;101596.59;5049066;28;19925;-56
2023/09/03 00:53:41;;;;;;;;;;;;;;;26.09;56.87;101605.75;5036918;28;19921;-56
2023/09/03 00:56:09;;;;;;;;;;;;;;;26.11;56.88;101600.16;5046285;28;20287;-56
2023/09/03 00:58:36;;;;;;;;;;;;;;;26.10;57.14;101595.75;5044474;28;19935;-56
2023/09/03 01:01:04;;;;;;;;;;;;;;;26.10;56.83;101598.47;5038009;28;20314;-56
2023/09/03 01:03:32;;;;;;;;;;;;;;;26.10;56.77;101596.59;5049725;28;19921;-56
2023/09/03 01:05:59;;;;;;;;;;;;;;;26.09;56.96;101600.31;5041575;28;20770;-56
2023/09/03 01:08:27;;;;;;;;;;;;;;;26.10;56.78;101612.88;5042178;28;19921;-56
2023/09/03 01:10:54;;;;;;;;;;;;;;;26.10;56.83;101602.03;5040718;28;20397;-57
2023/09/03 01:13:32;;;;;;;;;;;;;;;26.10;56.94;101603.88;5038193;28;19921;-57
2023/09/03 01:16:03;;;;;;;;;;;;;;;26.10;57.16;101602.03;5041817;28;19928;-56
2023/09/03 01:18:31;;;;;;;;;;;;;;;26.10;57.26;101599.31;5038721;28;19921;-56
2023/09/03 01:20:58;;;;;;;;;;;;;;;26.10;57.29;101604.72;5048226;28;19928;-56
2023/09/03 01:23:28;;;;;;;;;;;;;;;26.11;57.40;101602.88;5039737;28;19928;-56
2023/09/03 01:26:10;;;;;;;;;;;;;;;26.11;57.06;101600.16;5043532;28;19928;-56
2023/09/03 01:28:39;;;;;;;;;;;;;;;26.11;57.04;101603.72;5049506;28;19921;-57
2023/09/03 01:31:11;;;;;;;;;;;;;;;26.11;57.17;101609.16;5036930;28;19920;-56
2023/09/03 01:33:40;;;;;;;;;;;;;;;26.10;57.36;101618.31;5044714;28;19921;-57
2023/09/03 01:36:09;;;;;;;;;;;;;;;26.11;57.23;101614.56;5050195;28;19943;-57
2023/09/03 01:38:37;;;;;;;;;;;;;;;26.11;57.41;101624.56;5041381;28;20386;-56
2023/09/03 01:41:05;;;;;;;;;;;;;;;26.11;57.33;101613.72;5051993;28;20284;-56
2023/09/03 01:43:33;;;;;;;;;;;;;;;26.11;57.33;101616.44;5046623;28;19921;-56
2023/09/03 01:46:19;;;;;;;;;;;;;;;26.10;57.46;101621.00;5042563;28;19944;-56
2023/09/03 01:48:49;;;;;;;;;;;;;;;26.10;57.19;101607.44;5041411;28;19921;-56
2023/09/03 01:51:28;;;;;;;;;;;;;;;26.10;57.29;101604.72;5045449;28;20390;-57
2023/09/03 01:54:14;;;;;;;;;;;;;;;26.11;57.13;101605.59;5042210;28;19928;-56
2023/09/03 01:57:05;;;;;;;;;;;;;;;26.10;57.15;101603.88;5056268;28;19928;-56
2023/09/03 01:59:38;;;;;;;;;;;;;;;26.09;56.94;101603.03;5034669;28;19921;-56
2023/09/03 02:02:06;;;;;;;;;;;;;;;26.09;57.19;101594.91;5051350;28;19921;-56
2023/09/03 02:04:33;;;;;;;;;;;;;;;26.10;57.03;101609.31;5039617;28;19921;-56
2023/09/03 02:07:00;;;;;;;;;;;;;;;26.09;56.98;101602.16;5044221;28;19927;-56
2023/09/03 02:09:29;;;;;;;;;;;;;;;26.10;57.11;101603.88;5042897;28;19921;-56
2023/09/03 02:11:56;;;;;;;;;;;;;;;26.10;56.90;101612.88;5048273;28;19925;-56
2023/09/03 02:14:23;;;;;;;;;;;;;;;26.10;56.95;101614.75;5039463;28;19921;-57
2023/09/03 02:16:50;;;;;;;;;;;;;;;26.09;56.93;101605.75;5036741;28;19935;-57
2023/09/03 02:19:18;;;;;;;;;;;;;;;26.09;56.88;101613.88;5039292;28;19928;-56
2023/09/03 02:21:45;;;;;;;;;;;;;;;26.10;56.87;101615.59;5052270;28;20375;-56
2023/09/03 02:24:12;;;;;;;;;;;;;;;26.10;56.81;101612.88;5039586;28;20031;-56
2023/09/03 02:26:43;;;;;;;;;;;;;;;26.09;56.77;101613.00;5048506;28;19921;-56
2023/09/03 02:29:11;;;;;;;;;;;;;;;26.09;56.76;101619.31;5049185;28;20295;-56
2023/09/03 02:31:38;;;;;;;;;;;;;;;26.09;56.64;101622.03;5052690;28;19944;-57
2023/09/03 02:34:07;;;;;;;;;;;;;;;26.10;56.75;101626.44;5039369;28;19921;-57
2023/09/03 02:36:35;;;;;;;;;;;;;;;26.09;56.79;101632.88;5047371;28;19921;-57
2023/09/03 02:39:03;;;;;;;;;;;;;;;26.09;56.52;101627.47;5048528;28;19928;-56
2023/09/03 02:41:30;;;;;;;;;;;;;;;26.09;56.52;101626.56;5051882;28;19928;-56
2023/09/03 02:44:01;;;;;;;;;;;;;;;26.09;56.63;101623.88;5040536;28;19987;-56
2023/09/03 02:46:28;;;;;;;;;;;;;;;26.09;56.41;101618.44;5045918;28;20348;-56
2023/09/03 02:48:55;;;;;;;;;;;;;;;26.08;56.50;101633.88;5041189;28;19925;-56
2023/09/03 02:51:23;;;;;;;;;;;;;;;26.08;56.38;101625.72;5042834;28;19921;-57
2023/09/03 02:53:51;;;;;;;;;;;;;;;26.09;56.32;101635.59;5039968;28;19921;-57
2023/09/03 02:56:18;;;;;;;;;;;;;;;26.09;56.26;101630.19;5039870;28;19925;-57
2023/09/03 02:58:48;;;;;;;;;;;;;;;26.09;56.38;101630.19;5035450;28;19924;-56
2023/09/03 03:01:17;;;;;;;;;;;;;;;26.09;56.36;101627.47;5040038;28;19932;-57
2023/09/03 03:03:44;;;;;;;;;;;;;;;26.09;56.38;101630.19;5049024;28;19921;-56
2023/09/03 03:06:12;;;;;;;;;;;;;;;26.08;56.44;101628.44;5045187;28;19921;-57
2023/09/03 03:08:39;;;;;;;;;;;;;;;26.09;56.48;101629.28;5041912;28;19921;-56
2023/09/03 03:11:10;;;;;;;;;;;;;;;26.09;56.53;101626.56;5052346;28;19920;-56
2023/09/03 03:13:42;;;;;;;;;;;;;;;26.09;56.53;101626.56;5048288;28;19936;-56
2023/09/03 03:16:11;;;;;;;;;;;;;;;26.09;56.49;101613.00;5044910;28;19924;-56
2023/09/03 03:18:41;;;;;;;;;;;;;;;26.08;56.41;101614.88;5039595;28;19921;-57
2023/09/03 03:21:14;;;;;;;;;;;;;;;26.09;56.38;101618.44;5050267;28;19928;-56
2023/09/03 03:23:45;;;;;;;;;;;;;;;26.08;56.56;101616.75;5042867;28;19927;-56
2023/09/03 03:26:12;;;;;;;;;;;;;;;26.08;56.48;101628.44;5041488;28;19921;-56
2023/09/03 03:28:40;;;;;;;;;;;;;;;26.08;56.63;101611.31;5039733;28;19921;-56
2023/09/03 03:31:13;;;;;;;;;;;;;;;26.08;56.46;101614.88;5049098;28;19921;-56
2023/09/03 03:33:43;;;;;;;;;;;;;;;26.08;56.47;101611.31;5042905;28;19921;-56
2023/09/03 03:36:14;;;;;;;;;;;;;;;26.08;56.48;101608.59;5040456;28;19925;-56
2023/09/03 03:38:42;;;;;;;;;;;;;;;26.08;56.40;101603.19;5049879;28;19921;-56
2023/09/03 03:41:11;;;;;;;;;;;;;;;26.08;56.41;101608.59;5041446;28;19925;-56
2023/09/03 03:43:40;;;;;;;;;;;;;;;26.07;56.26;101610.47;5043122;28;19944;-56
2023/09/03 03:46:09;;;;;;;;;;;;;;;26.09;56.41;101621.16;5047902;28;19921;-56
2023/09/03 03:48:38;;;;;;;;;;;;;;;26.08;56.44;101611.31;5037622;28;20359;-56
2023/09/03 03:51:05;;;;;;;;;;;;;;;26.07;56.23;101615.91;5047570;28;19931;-56
2023/09/03 03:53:32;;;;;;;;;;;;;;;26.08;56.38;101627.59;5045714;28;20383;-56
2023/09/03 03:56:00;;;;;;;;;;;;;;;26.06;56.30;101625.06;5038794;28;19920;-56
2023/09/03 03:58:30;;;;;;;;;;;;;;;26.08;56.28;101630.31;5053085;28;19924;-56
2023/09/03 04:00:57;;;;;;;;;;;;;;;26.07;56.25;101634.03;5047670;28;19925;-57
2023/09/03 04:03:28;;;;;;;;;;;;;;;26.07;56.29;101640.31;5045024;28;19920;-56
2023/09/03 04:06:00;;;;;;;;;;;;;;;26.07;56.30;101636.75;5038773;28;20387;-57
2023/09/03 04:08:29;;;;;;;;;;;;;;;26.05;56.33;101639.63;5048891;28;19921;-56
2023/09/03 04:11:03;;;;;;;;;;;;;;;26.07;56.38;101645.75;5043021;28;19920;-56
2023/09/03 04:13:30;;;;;;;;;;;;;;;26.07;56.31;101650.31;5040133;28;19921;-56
2023/09/03 04:15:58;;;;;;;;;;;;;;;26.06;56.23;101663.03;5049594;28;19928;-56
2023/09/03 04:18:26;;;;;;;;;;;;;;;26.05;56.25;101653.22;5043580;28;19920;-56
2023/09/03 04:20:55;;;;;;;;;;;;;;;26.06;56.22;101663.03;5042671;28;19921;-56
2023/09/03 04:23:25;;;;;;;;;;;;;;;26.06;56.12;101665.75;5039111;28;19921;-56
2023/09/03 04:25:53;;;;;;;;;;;;;;;26.06;56.20;101673.91;5051735;28;20291;-56
2023/09/03 04:28:20;;;;;;;;;;;;;;;26.06;56.27;101671.19;5047021;28;19928;-56
2023/09/03 04:30:54;;;;;;;;;;;;;;;26.06;56.25;101670.34;5044089;28;19921;-57
2023/09/03 04:33:21;;;;;;;;;;;;;;;26.06;56.30;101684.75;5039503;28;19944;-57
2023/09/03 04:36:00;;;;;;;;;;;;;;;26.06;56.29;101686.63;5048831;28;19920;-56
2023/09/03 04:38:30;;;;;;;;;;;;;;;26.06;56.25;101689.31;5040945;28;19920;-56
2023/09/03 04:41:05;;;;;;;;;;;;;;;26.06;56.18;101695.59;5039851;28;19928;-56
2023/09/03 04:44:04;;;;;;;;;;;;;;;26.06;56.17;101694.75;5037465;28;19921;-56
2023/09/03 04:46:33;;;;;;;;;;;;;;;26.05;55.87;101698.47;5020539;28;19921;-56
2023/09/03 04:49:01;;;;;;;;;;;;;;;26.04;55.67;101688.63;5036751;28;19921;-56
2023/09/03 04:51:29;;;;;;;;;;;;;;;26.03;55.42;101698.63;5048741;28;19920;-56
2023/09/03 04:53:56;;;;;;;;;;;;;;;26.02;55.33;101698.78;5039320;28;20285;-56
2023/09/03 04:56:23;;;;;;;;;;;;;;;26.01;55.32;101686.22;5043633;28;20269;-56
2023/09/03 04:58:53;;;;;;;;;;;;;;;25.99;55.27;101697.22;5046580;28;19921;-61
2023/09/03 05:01:20;;;;;;;;;;;;;;;25.98;55.19;101697.41;5037803;28;19921;-61
2023/09/03 05:03:50;;;;;;;;;;;;;;;25.98;54.98;101706.38;5045858;28;19921;-61
2023/09/03 05:06:20;;;;;;;;;;;;;;;25.97;54.92;101707.41;5043864;28;19920;-61
2023/09/03 05:08:50;;;;;;;;;;;;;;;25.98;54.74;101705.53;5036736;28;19936;-62
2023/09/03 05:11:19;;;;;;;;;;;;;;;25.97;54.92;101704.69;5052512;28;20295;-61
2023/09/03 05:13:48;;;;;;;;;;;;;;;25.98;54.84;101714.53;5045475;28;19925;-61
2023/09/03 05:16:16;;;;;;;;;;;;;;;25.97;54.85;101715.53;5044215;28;19928;-61
2023/09/03 05:18:44;;;;;;;;;;;;;;;25.96;54.79;101721.09;5052243;28;19928;-56
2023/09/03 05:21:12;;;;;;;;;;;;;;;25.95;54.71;101719.41;5052187;28;20322;-56
2023/09/03 05:23:39;;;;;;;;;;;;;;;25.95;54.78;101722.13;5044910;28;19921;-56
2023/09/03 05:26:07;;;;;;;;;;;;;;;25.92;54.76;101725.97;5044111;28;19921;-56
2023/09/03 05:28:37;;;;;;;;;;;;;;;25.92;54.61;101733.25;5040063;28;19920;-56
2023/09/03 05:31:04;;;;;;;;;;;;;;;25.91;54.61;101727.00;5051881;28;19921;-56
2023/09/03 05:33:33;;;;;;;;;;;;;;;25.91;54.85;101728.84;5044895;28;19920;-55
2023/09/03 05:36:01;;;;;;;;;;;;;;;25.90;54.89;101725.28;5043231;28;19921;-56
2023/09/03 05:38:28;;;;;;;;;;;;;;;25.90;54.79;101722.59;5055386;28;20306;-56
2023/09/03 05:40:58;;;;;;;;;;;;;;;25.91;54.85;101709.88;5040662;28;19928;-56
2023/09/03 05:43:27;;;;;;;;;;;;;;;25.90;54.83;101711.72;5046953;28;19921;-56
2023/09/03 05:45:55;;;;;;;;;;;;;;;25.89;54.62;101708.16;5048857;28;19920;-56
2023/09/03 05:48:24;;;;;;;;;;;;;;;25.90;54.59;101706.31;5040212;28;19921;-56
2023/09/03 05:50:57;;;;;;;;;;;;;;;25.89;54.62;101705.47;5050510;28;19921;-55
2023/09/03 05:53:27;;;;;;;;;;;;;;;25.89;54.69;101700.03;5046552;28;19928;-56
2023/09/03 05:56:02;;;;;;;;;;;;;;;25.89;54.55;101710.03;5041120;28;19928;-56
2023/09/03 05:58:29;;;;;;;;;;;;;;;25.89;54.53;101719.03;5051859;28;20397;-61
2023/09/03 06:00:57;;;;;;;;;;;;;;;25.91;54.52;101712.56;5043284;28;19927;-61
2023/09/03 06:03:24;;;;;;;;;;;;;;;25.91;54.90;101709.88;5045580;28;20295;-62
2023/09/03 06:05:52;;;;;;;;;;;;;;;25.91;55.12;101708.00;5051087;28;19921;-62
2023/09/03 06:08:19;;;;;;;;;;;;;;;25.92;54.83;101706.13;5039561;28;19932;-56
2023/09/03 06:10:47;;;;;;;;;;;;;;;25.91;54.63;101694.44;5049688;28;19928;-56
2023/09/03 06:13:14;;;;;;;;;;;;;;;25.91;54.63;101702.56;5048147;28;19928;-56
2023/09/03 06:15:41;;;;;;;;;;;;;;;25.91;54.56;101686.28;5041457;28;19925;-56
2023/09/03 06:18:08;;;;;;;;;;;;;;;25.92;54.57;101687.16;5052674;28;20001;-56
2023/09/03 06:20:37;;;;;;;;;;;;;;;25.92;54.46;101696.13;5039663;28;19921;-56
2023/09/03 06:23:04;;;;;;;;;;;;;;;25.93;54.46;101687.00;5040117;28;19921;-56
2023/09/03 06:25:31;;;;;;;;;;;;;;;25.93;54.45;101692.44;5042522;28;19921;-56
2023/09/03 06:27:59;;;;;;;;;;;;;;;25.93;54.66;101687.00;5040964;28;20320;-61
2023/09/03 06:30:26;;;;;;;;;;;;;;;25.94;54.81;101682.44;5040317;28;20264;-61
2023/09/03 06:32:53;;;;;;;;;;;;;;;25.96;54.76;101693.97;5048095;28;19920;-61
2023/09/03 06:35:20;;;;;;;;;;;;;;;25.96;55.10;101693.97;5043580;28;19931;-62
2023/09/03 06:37:47;;;;;;;;;;;;;;;25.97;55.22;101699.25;5039851;28;19992;-61
2023/09/03 06:40:15;;;;;;;;;;;;;;;25.96;55.13;101697.53;5049301;28;19921;-61
2023/09/03 06:42:42;;;;;;;;;;;;;;;25.98;55.47;101713.69;5047452;28;19921;-61
2023/09/03 06:45:09;;;;;;;;;;;;;;;25.98;55.50;101700.09;5041352;28;19921;-61
2023/09/03 06:47:38;;;;;;;;;;;;;;;25.99;55.71;101704.53;5049019;28;19927;-57
2023/09/03 06:50:06;;;;;;;;;;;;;;;25.98;55.65;101700.97;5043359;28;19921;-56
2023/09/03 06:52:34;;;;;;;;;;;;;;;25.98;55.50;101703.66;5044673;28;19920;-56
2023/09/03 06:55:01;;;;;;;;;;;;;;;26.00;55.53;101700.78;5051231;28;20293;-56
2023/09/03 06:57:29;;;;;;;;;;;;;;;26.01;55.65;101711.50;5039992;28;20386;-56
2023/09/03 06:59:56;;;;;;;;;;;;;;;26.02;55.60;101717.78;5048749;28;19929;-61
2023/09/03 07:02:23;;;;;;;;;;;;;;;26.03;55.53;101712.19;5047594;28;20362;-61
2023/09/03 07:04:51;;;;;;;;;;;;;;;26.05;55.61;101725.59;5040410;28;19940;-61
2023/09/03 07:07:18;;;;;;;;;;;;;;;26.06;55.57;101711.88;5051437;28;19921;-61
2023/09/03 07:09:45;;;;;;;;;;;;;;;26.07;55.55;101702.72;5042905;28;19920;-61
2023/09/03 07:12:12;;;;;;;;;;;;;;;26.07;55.58;101710.88;5044209;28;20287;-61
2023/09/03 07:14:40;;;;;;;;;;;;;;;26.09;55.38;101721.56;5050474;28;19959;-61
2023/09/03 07:17:07;;;;;;;;;;;;;;;26.09;55.46;101733.28;5039526;28;19921;-62
2023/09/03 07:19:34;;;;;;;;;;;;;;;26.07;55.19;101721.72;5048343;28;19921;-61
2023/09/03 07:22:01;;;;;;;;;;;;;;;26.04;54.85;101721.19;5046534;28;19921;-62
2023/09/03 07:24:28;;;;;;;;;;;;;;;26.01;54.71;101724.19;5040671;28;19921;-61
2023/09/03 07:26:55;;;;;;;;;;;;;;;25.98;55.10;101719.09;5051249;28;20362;-61
2023/09/03 07:29:22;;;;;;;;;;;;;;;25.93;54.82;101722.28;5042017;28;19928;-56
2023/09/03 07:31:50;;;;;;;;;;;;;;;25.91;54.71;101721.56;5043963;28;19928;-56
2023/09/03 07:34:17;;;;;;;;;;;;;;;25.90;54.54;101728.00;5049412;28;19943;-56
2023/09/03 07:36:44;;;;;;;;;;;;;;;25.88;54.51;101721.88;5038997;28;19928;-56
2023/09/03 07:39:11;;;;;;;;;;;;;;;25.86;54.53;101724.75;5048551;28;19925;-61
2023/09/03 07:41:39;;;;;;;;;;;;;;;25.84;54.59;101729.44;5035317;28;19925;-61
2023/09/03 07:44:07;;;;;;;;;;;;;;;25.84;54.67;101723.19;5049193;28;19921;-61
2023/09/03 07:46:34;;;;;;;;;;;;;;;25.85;54.59;101722.19;5038524;28;19928;-61
2023/09/03 07:49:01;;;;;;;;;;;;;;;25.82;54.80;101720.63;5048141;28;19937;-61
2023/09/03 07:51:29;;;;;;;;;;;;;;;25.81;54.81;101721.66;5045408;28;19921;-61
2023/09/03 07:53:59;;;;;;;;;;;;;;;25.80;54.86;101725.34;5039960;28;19921;-61
2023/09/03 07:56:26;;;;;;;;;;;;;;;25.78;54.94;101721.09;5050625;28;19928;-61
2023/09/03 07:58:54;;;;;;;;;;;;;;;25.77;55.11;101725.66;5041885;28;19920;-56
2023/09/03 08:01:21;;;;;;;;;;;;;;;25.76;55.00;101723.06;5043739;28;19925;-56
2023/09/03 08:03:48;;;;;;;;;;;;;;;25.74;54.97;101730.50;5038328;28;19928;-56
2023/09/03 08:06:15;;;;;;;;;;;;;;;25.73;54.98;101718.81;5050521;28;19921;-56
2023/09/03 08:08:43;;;;;;;;;;;;;;;25.74;55.26;101725.94;5042013;28;19928;-61
2023/09/03 08:11:10;;;;;;;;;;;;;;;25.75;55.46;101724.06;5043781;28;19924;-62
2023/09/03 08:13:37;;;;;;;;;;;;;;;25.77;55.32;101728.38;5049121;28;19928;-62
2023/09/03 08:16:04;;;;;;;;;;;;;;;25.77;55.29;101725.66;5038182;28;19927;-62
2023/09/03 08:18:34;;;;;;;;;;;;;;;25.79;55.44;101730.94;5047448;28;19925;-61
2023/09/03 08:21:02;;;;;;;;;;;;;;;25.81;55.48;101728.94;5045226;28;19924;-61
2023/09/03 08:23:29;;;;;;;;;;;;;;;25.83;55.43;101737.75;5038452;28;20372;-62
2023/09/03 08:25:56;;;;;;;;;;;;;;;25.82;55.25;101736.91;5049929;28;19925;-61
2023/09/03 08:28:23;;;;;;;;;;;;;;;25.82;55.22;101730.63;5039890;28;19921;-61
2023/09/03 08:30:50;;;;;;;;;;;;;;;25.83;54.95;101740.47;5042010;28;20406;-62
2023/09/03 08:33:17;;;;;;;;;;;;;;;25.82;54.67;101736.06;5048701;28;19920;-61
2023/09/03 08:35:45;;;;;;;;;;;;;;;25.84;54.88;101731.31;5037928;28;19920;-61
2023/09/03 08:38:12;;;;;;;;;;;;;;;25.86;55.04;101737.47;5049669;28;20306;-56
2023/09/03 08:40:40;;;;;;;;;;;;;;;25.87;54.88;101725.59;5045094;28;19921;-56
2023/09/03 08:43:08;;;;;;;;;;;;;;;25.87;55.03;101721.00;5038512;28;19921;-56
2023/09/03 08:45:40;;;;;;;;;;;;;;;25.89;55.04;101732.59;5048387;28;19921;-56
2023/09/03 08:48:07;;;;;;;;;;;;;;;25.92;55.21;101725.97;5035260;28;19928;-60
2023/09/03 08:50:35;;;;;;;;;;;;;;;25.95;55.12;101728.38;5039427;28;19920;-61
2023/09/03 08:53:03;;;;;;;;;;;;;;;25.96;55.42;101721.09;5049124;28;19924;-56
2023/09/03 08:55:32;;;;;;;;;;;;;;;25.97;55.45;101720.97;5037318;28;19921;-53
2023/09/03 08:57:59;;;;;;;;;;;;;;;25.99;55.44;101718.09;5036808;28;19928;-52
2023/09/03 09:00:27;;;;;;;;;;;;;;;26.02;55.40;101712.34;5037586;28;19921;-56
2023/09/03 09:02:57;;;;;;;;;;;;;;;26.03;55.63;101714.06;5043013;28;20011;-54
2023/09/03 09:05:25;;;;;;;;;;;;;;;26.06;55.75;101717.31;5039973;28;19921;-55
2023/09/03 09:07:52;;;;;;;;;;;;;;;26.08;55.72;101709.00;5041006;28;19925;-61
2023/09/03 09:10:22;;;;;;;;;;;;;;;26.08;55.40;101718.00;5043702;28;19921;-61
2023/09/03 09:12:51;;;;;;;;;;;;;;;26.07;55.29;101716.31;5042733;28;19921;-61
2023/09/03 09:15:19;;;;;;;;;;;;;;;26.08;55.14;101709.00;5043625;28;19928;-60
2023/09/03 09:17:48;;;;;;;;;;;;;;;26.09;55.25;101705.28;5041866;28;20276;-60
2023/09/03 09:20:16;;;;;;;;;;;;;;;26.09;55.16;101708.88;5036816;28;19921;-61
2023/09/03 09:22:48;;;;;;;;;;;;;;;26.10;54.98;101705.13;5044379;28;19920;-60
2023/09/03 09:25:22;;;;;;;;;;;;;;;26.09;54.83;101703.44;5036583;28;19921;-59
2023/09/03 09:27:51;;;;;;;;;;;;;;;26.11;54.68;101697.84;5037246;28;19920;-62
2023/09/03 09:30:19;;;;;;;;;;;;;;;26.11;54.66;101706.84;5038469;28;19928;-60
2023/09/03 09:32:47;;;;;;;;;;;;;;;26.14;54.66;101698.41;5038172;28;19920;-60
2023/09/03 09:35:24;;;;;;;;;;;;;;;26.16;54.90;101702.81;5041297;28;19921;-60
2023/09/03 09:37:51;;;;;;;;;;;;;;;26.17;54.45;101707.22;5036331;28;19921;-60
2023/09/03 09:40:28;;;;;;;;;;;;;;;26.18;54.21;101703.50;5040209;28;19928;-60
2023/09/03 09:42:56;;;;;;;;;;;;;;;26.20;54.40;101698.78;5037060;28;19921;-61
2023/09/03 09:45:24;;;;;;;;;;;;;;;26.19;54.39;101688.94;5036696;28;19921;-62
2023/09/03 09:48:04;;;;;;;;;;;;;;;26.19;53.91;101694.34;5044751;28;19920;-61
2023/09/03 09:50:37;;;;;;;;;;;;;;;26.20;53.76;101701.47;5042305;28;20241;-62
2023/09/03 09:53:04;;;;;;;;;;;;;;;26.20;53.74;101701.47;5045821;28;19944;-61
2023/09/03 09:55:32;;;;;;;;;;;;;;;26.21;53.71;101704.06;5043204;28;19921;-62
2023/09/03 09:57:59;;;;;;;;;;;;;;;26.22;53.84;101699.47;5048369;28;20282;-56
2023/09/03 10:00:34;;;;;;;;;;;;;;;26.22;53.88;101700.34;5044945;28;19921;-55
2023/09/03 10:03:02;;;;;;;;;;;;;;;26.23;54.05;101704.75;5044848;28;19925;-57
2023/09/03 10:05:29;;;;;;;;;;;;;;;26.24;54.36;101698.28;5047182;28;19920;-58
2023/09/03 10:07:57;;;;;;;;;;;;;;;26.25;54.24;101694.59;5045424;28;19925;-64
2023/09/03 10:10:24;;;;;;;;;;;;;;;26.27;54.79;101708.84;5047550;28;19928;-62
2023/09/03 10:12:51;;;;;;;;;;;;;;;26.26;55.09;101704.44;5043949;28;19924;-63
2023/09/03 10:15:20;;;;;;;;;;;;;;;26.26;55.43;101698.16;5045928;28;19921;-64
2023/09/03 10:17:50;;;;;;;;;;;;;;;26.27;55.08;101699.84;5049986;28;19927;-57
2023/09/03 10:20:19;;;;;;;;;;;;;;;26.27;55.14;101702.56;5048252;28;19921;-59
2023/09/03 10:22:48;;;;;;;;;;;;;;;26.28;55.12;101699.69;5039379;28;20023;-58
2023/09/03 10:25:18;;;;;;;;;;;;;;;26.29;55.13;101697.81;5042790;28;19921;-58
2023/09/03 10:27:50;;;;;;;;;;;;;;;26.28;55.25;101696.97;5042305;28;19921;-66
2023/09/03 10:30:29;;;;;;;;;;;;;;;26.28;54.81;101696.97;5039283;28;20290;-66
2023/09/03 10:32:57;;;;;;;;;;;;;;;26.28;55.28;101704.25;5040110;28;19921;-67
2023/09/03 10:35:24;;;;;;;;;;;;;;;26.28;55.39;101698.84;5046746;28;19928;-68
2023/09/03 10:37:51;;;;;;;;;;;;;;;26.28;55.65;101696.97;5043793;28;19928;-60
2023/09/03 10:40:26;;;;;;;;;;;;;;;26.31;55.75;101701.25;5048215;28;19920;-60
2023/09/03 10:43:13;;;;;;;;;;;;;;;26.32;55.40;101695.66;5035605;28;19928;-60
2023/09/03 10:46:00;;;;;;;;;;;;;;;26.32;55.42;101686.66;5035367;28;19928;-60
2023/09/03 10:48:29;;;;;;;;;;;;;;;26.35;54.95;101689.91;5035481;28;19921;-59
2023/09/03 10:50:56;;;;;;;;;;;;;;;26.35;55.25;101681.75;5038469;28;19928;-60
2023/09/03 10:53:32;;;;;;;;;;;;;;;26.35;55.10;101678.19;5039054;28;19928;-59
2023/09/03 10:56:06;;;;;;;;;;;;;;;26.35;54.84;101675.50;5045310;28;19920;-60
2023/09/03 10:58:33;;;;;;;;;;;;;;;26.37;54.67;101670.75;5038278;28;19921;-60
2023/09/03 11:01:19;;;;;;;;;;;;;;;26.37;55.36;101657.16;5044860;28;19920;-60
2023/09/03 11:03:47;;;;;;;;;;;;;;;26.36;55.51;101659.03;5038834;28;20338;-60
2023/09/03 11:06:18;;;;;;;;;;;;;;;26.35;55.53;101648.34;5039320;28;19925;-60
2023/09/03 11:09:06;;;;;;;;;;;;;;;26.35;55.56;101643.75;5039204;28;19925;-55
2023/09/03 11:11:35;;;;;;;;;;;;;;;26.34;55.86;101633.06;5038352;28;19928;-55
2023/09/03 11:14:02;;;;;;;;;;;;;;;26.34;55.83;101642.06;5038797;28;19921;-55
2023/09/03 11:16:31;;;;;;;;;;;;;;;26.35;55.53;101638.34;5043946;28;19920;-56
2023/09/03 11:19:00;;;;;;;;;;;;;;;26.38;55.43;101646.16;5046822;28;19928;-61
2023/09/03 11:21:27;;;;;;;;;;;;;;;26.43;55.24;101636.69;5042928;28;19925;-61
2023/09/03 11:24:18;;;;;;;;;;;;;;;26.46;54.72;101633.69;5039094;28;19932;-60
2023/09/03 11:26:45;;;;;;;;;;;;;;;26.49;54.31;101633.34;5044175;28;19920;-56
2023/09/03 11:29:19;;;;;;;;;;;;;;;26.48;54.58;101634.38;5037052;28;20272;-56
2023/09/03 11:31:47;;;;;;;;;;;;;;;26.50;54.79;101633.22;5038740;28;19921;-56
2023/09/03 11:34:24;;;;;;;;;;;;;;;26.53;54.93;101626.59;5048204;28;19931;-50
2023/09/03 11:36:51;;;;;;;;;;;;;;;26.52;54.84;101636.59;5037979;28;19921;-50
2023/09/03 11:39:19;;;;;;;;;;;;;;;26.52;54.73;101630.31;5038090;28;19921;-58
2023/09/03 11:41:46;;;;;;;;;;;;;;;26.56;54.29;101634.44;5038197;28;20283;-59
2023/09/03 11:44:20;;;;;;;;;;;;;;;26.59;53.42;101637.69;5041347;28;19920;-58
2023/09/03 11:46:57;;;;;;;;;;;;;;;26.62;52.91;101629.22;5038224;28;19921;-58
2023/09/03 11:49:24;;;;;;;;;;;;;;;26.62;52.65;101625.66;5038310;28;19932;-61
2023/09/03 11:51:52;;;;;;;;;;;;;;;26.67;52.45;101627.88;5039186;28;19988;-61
2023/09/03 11:54:23;;;;;;;;;;;;;;;26.67;52.67;101625.16;5038214;28;19927;-61
2023/09/03 11:56:51;;;;;;;;;;;;;;;26.67;52.43;101620.56;5046844;28;20286;-51
2023/09/03 11:59:19;;;;;;;;;;;;;;;26.66;52.09;101607.13;5042873;28;19920;-52
2023/09/03 12:01:46;;;;;;;;;;;;;;;26.67;51.71;101606.16;5044150;28;20394;-53
2023/09/03 12:04:13;;;;;;;;;;;;;;;26.65;51.89;101608.16;5044290;28;19928;-53
2023/09/03 12:06:41;;;;;;;;;;;;;;;26.67;51.58;101596.13;5040842;28;19921;-53
2023/09/03 12:09:08;;;;;;;;;;;;;;;26.68;50.72;101596.97;5043433;28;20284;-49
2023/09/03 12:11:35;;;;;;;;;;;;;;;26.70;49.78;101595.81;5043297;28;19931;-50
2023/09/03 12:14:02;;;;;;;;;;;;;;;26.71;49.78;101594.78;5043987;28;19987;-48
2023/09/03 12:16:30;;;;;;;;;;;;;;;26.70;49.59;101589.50;5046343;28;20401;-50
2023/09/03 12:18:58;;;;;;;;;;;;;;;26.72;49.49;101599.22;5046694;28;19921;-48
2023/09/03 12:21:32;;;;;;;;;;;;;;;26.73;49.13;101602.78;5041991;28;19925;-50
2023/09/03 12:24:06;;;;;;;;;;;;;;;26.72;49.10;101599.22;5039785;28;19929;-53
2023/09/03 12:26:36;;;;;;;;;;;;;;;26.73;49.01;101609.06;5041814;28;19921;-49
2023/09/03 12:29:17;;;;;;;;;;;;;;;26.72;49.57;101599.22;5043808;28;20383;-49
2023/09/03 12:31:44;;;;;;;;;;;;;;;26.72;49.47;101601.06;5042878;28;20387;-52
2023/09/03 12:34:12;;;;;;;;;;;;;;;26.73;49.19;101597.34;5047283;28;19928;-52
2023/09/03 12:37:05;;;;;;;;;;;;;;;26.72;49.32;101593.78;5043520;28;19921;-53
2023/09/03 12:39:34;;;;;;;;;;;;;;;26.70;49.94;101590.38;5055030;28;19921;-52
2023/09/03 12:42:02;;;;;;;;;;;;;;;26.69;50.17;101587.81;5039844;28;19921;-55
2023/09/03 12:44:29;;;;;;;;;;;;;;;26.71;50.27;101591.22;5043983;28;19921;-51
2023/09/03 12:46:57;;;;;;;;;;;;;;;26.71;50.54;101593.94;5044888;28;19928;-52